Terminal Aerodrome Forecast
Issued by NWS Northern Indiana

Home | Current Version | Previous Version | Text Only | Print | Product List | Glossary On
Versions: 1 2 3 4 5 6 7 8 9 10 11 12 13 14
780
FTUS43 KIWX 290534
TAFFWA
TAF
KFWA 290534Z 2906/3006 20012KT P6SM BKN200 WS020/22045KT
     FM291200 22013KT P6SM BKN200
     FM291500 24016G26KT P6SM BKN050
     FM292100 23015KT P6SM VCSH BKN050=

USA.gov is the U.S. government's official web portal to all federal, state and local government web resources and services.